createdAt,value
2018-09-09T00:49:22.295Z,4.57
2018-09-09T00:54:25.718Z,4.40
2018-09-09T00:59:29.547Z,3.80
2018-09-09T02:30:56.772Z,4.93
2018-09-09T02:36:00.128Z,4.47
2018-09-09T02:41:03.471Z,4.23
2018-09-09T03:49:24.827Z,4.40
2018-09-09T03:54:28.163Z,4.70
2018-09-09T03:59:31.502Z,4.70
2018-09-09T05:02:07.151Z,4.37
2018-09-09T05:07:10.477Z,4.53
2018-09-09T05:12:13.815Z,4.73
2018-09-09T05:17:17.144Z,5.67
2018-09-09T05:22:21.235Z,5.17
2018-09-09T05:27:24.584Z,5.70
2018-09-09T05:32:28.135Z,5.77
2018-09-09T05:37:31.462Z,5.87
2018-09-09T05:42:34.794Z,5.63
2018-09-09T05:47:38.134Z,5.57
2018-09-09T05:52:42.252Z,5.30
2018-09-09T05:57:45.634Z,4.73
2018-09-09T06:02:48.923Z,4.50
2018-09-09T06:07:52.251Z,4.70
2018-09-09T06:12:55.574Z,4.90
2018-09-09T06:17:58.906Z,4.37
2018-09-09T06:23:02.247Z,4.37
2018-09-09T06:28:06.344Z,5.33
2018-09-09T06:33:09.683Z,4.30
2018-09-09T06:38:13.791Z,4.40
2018-09-09T06:43:17.130Z,3.97
2018-09-09T06:48:21.234Z,4.50
2018-09-09T06:53:24.567Z,4.40
2018-09-09T06:58:28.656Z,4.20
2018-09-09T07:03:31.994Z,3.93
2018-09-09T07:08:35.330Z,4.40
2018-09-09T07:13:39.431Z,3.97
2018-09-09T07:18:42.769Z,3.97
2018-09-09T07:23:46.858Z,3.87
2018-09-09T07:28:50.229Z,3.67
2018-09-09T07:33:53.560Z,3.40
2018-09-09T07:38:56.884Z,4.20
2018-09-09T07:44:00.211Z,3.57
2018-09-09T07:49:03.544Z,4.00
2018-09-09T07:54:30.590Z,4.00
2018-09-09T07:59:33.953Z,3.40
2018-09-09T08:04:38.047Z,3.83
2018-09-09T08:09:41.391Z,3.80
2018-09-09T08:14:48.713Z,3.77
2018-09-09T08:19:52.046Z,3.70
2018-09-09T08:24:55.379Z,3.43
2018-09-09T08:29:58.964Z,3.73
2018-09-09T08:35:03.447Z,3.60
2018-09-09T08:40:06.847Z,4.30
2018-09-09T08:45:11.196Z,3.70
2018-09-09T08:50:14.534Z,3.50
2018-09-09T08:55:18.659Z,3.17
2018-09-09T09:00:21.996Z,3.63
2018-09-09T09:05:38.750Z,3.30
2018-09-09T09:10:42.074Z,3.10
2018-09-09T09:15:45.404Z,3.30
2018-09-09T09:20:48.738Z,2.83
2018-09-09T09:25:52.067Z,3.37
2018-09-09T09:30:56.167Z,3.93
2018-09-09T09:36:02.441Z,3.40
2018-09-09T09:41:09.927Z,3.23
2018-09-09T09:46:19.384Z,3.63
2018-09-09T09:51:22.718Z,2.90
2018-09-09T09:56:37.885Z,2.63
2018-09-09T10:01:41.220Z,3.03
2018-09-09T10:17:54.856Z,2.97
2018-09-09T10:22:58.194Z,2.70
2018-09-09T10:28:01.524Z,2.80
2018-09-09T10:33:05.615Z,2.80
2018-09-09T10:38:08.964Z,3.20
2018-09-09T10:43:12.291Z,2.80
2018-09-09T10:48:16.379Z,2.57
2018-09-09T10:53:19.716Z,2.93
2018-09-09T10:58:23.815Z,2.73
2018-09-09T11:03:27.151Z,2.67
2018-09-09T11:08:30.494Z,2.50
2018-09-09T11:13:33.843Z,2.57
2018-09-09T11:18:37.167Z,2.43
2018-09-09T11:23:40.504Z,2.60
2018-09-09T11:28:43.861Z,2.60
2018-09-09T11:33:47.311Z,2.70
2018-09-09T11:38:50.639Z,2.50
2018-09-09T11:43:53.975Z,2.43
2018-09-09T11:48:58.086Z,2.60
2018-09-09T11:54:01.412Z,2.30
2018-09-09T11:59:05.511Z,2.50
2018-09-09T12:04:08.853Z,2.40
2018-09-09T12:09:12.938Z,2.50
2018-09-09T12:14:16.274Z,2.40
2018-09-09T12:19:19.615Z,2.47
2018-09-09T12:24:23.701Z,2.43
2018-09-09T12:29:27.033Z,1.80
2018-09-09T12:34:30.359Z,2.80
2018-09-09T12:39:33.699Z,2.40
2018-09-09T12:44:42.634Z,2.90
2018-09-09T12:49:46.727Z,3.10
2018-09-09T12:54:50.078Z,2.53
2018-09-09T12:59:54.182Z,2.70
2018-09-09T13:04:57.635Z,2.67
2018-09-09T13:10:01.775Z,3.03
2018-09-09T13:15:05.106Z,2.87
2018-09-09T13:20:08.427Z,3.00
2018-09-09T13:25:11.755Z,2.13
2018-09-09T13:30:15.082Z,3.30
2018-09-09T13:35:18.411Z,2.80
2018-09-09T13:40:22.508Z,2.30
2018-09-09T13:45:25.840Z,2.17
2018-09-09T13:50:29.952Z,1.83
2018-09-09T13:55:33.282Z,2.73
2018-09-09T14:00:36.612Z,3.10
2018-09-09T14:05:40.703Z,3.40
2018-09-09T14:10:44.034Z,3.00
2018-09-09T14:15:47.358Z,3.03
2018-09-09T14:20:51.451Z,2.10
2018-09-09T14:25:54.787Z,3.07
2018-09-09T14:30:58.879Z,3.27
2018-09-09T14:36:02.201Z,3.10
2018-09-09T14:41:05.528Z,2.40
2018-09-09T14:46:27.707Z,2.23
2018-09-09T14:51:31.798Z,3.03
2018-09-09T14:56:36.147Z,2.20
2018-09-09T15:01:39.475Z,2.87
2018-09-09T15:06:56.872Z,2.90
2018-09-09T15:12:00.158Z,2.70
2018-09-09T15:17:03.491Z,2.87
2018-09-09T15:22:06.827Z,2.30
2018-09-09T15:27:10.161Z,2.10
2018-09-09T15:32:13.551Z,2.55
2018-09-09T15:37:16.910Z,2.30
2018-09-09T15:42:21.011Z,2.15
2018-09-09T15:47:24.339Z,2.33
2018-09-09T15:52:27.670Z,2.50
2018-09-09T15:57:30.998Z,2.47
2018-09-09T16:02:34.333Z,2.10
2018-09-09T16:07:37.659Z,2.43
2018-09-09T16:12:41.039Z,2.10
2018-09-09T16:17:44.348Z,2.53
2018-09-09T16:22:47.690Z,2.47
2018-09-09T16:27:51.016Z,2.47
2018-09-09T16:32:54.343Z,2.00
2018-09-09T16:37:57.682Z,2.37
2018-09-09T16:43:01.774Z,2.30
2018-09-09T16:48:05.107Z,2.20
2018-09-09T16:53:08.457Z,2.37
2018-09-09T16:58:11.791Z,2.87
2018-09-09T17:03:15.128Z,2.43
2018-09-09T17:08:18.468Z,2.20
2018-09-09T17:13:22.566Z,2.70
2018-09-09T17:18:25.886Z,3.23
2018-09-09T17:23:29.214Z,7.20
2018-09-09T17:28:32.557Z,10.60
2018-09-09T17:33:35.892Z,3.00
2018-09-09T17:38:39.735Z,4.63
2018-09-09T17:43:43.397Z,3.30
2018-09-09T17:48:47.523Z,10.33
2018-09-09T17:53:51.627Z,8.63
2018-09-09T17:58:54.968Z,26.60
2018-09-09T18:03:59.078Z,192.43
2018-09-09T18:09:02.426Z,233.20
2018-09-09T18:14:05.779Z,89.73
2018-09-09T18:19:09.409Z,58.83
2018-09-09T18:24:13.119Z,26.10
2018-09-09T18:29:16.456Z,20.73
2018-09-09T18:34:19.786Z,9.10
2018-09-09T18:39:23.135Z,4.20
2018-09-09T18:44:26.472Z,5.40
2018-09-09T18:49:29.810Z,8.07
2018-09-09T18:54:33.143Z,12.13
2018-09-09T18:59:37.247Z,7.57
2018-09-09T19:04:42.519Z,16.57
2018-09-09T19:09:46.602Z,7.20
2018-09-09T19:14:51.882Z,5.70
2018-09-09T19:19:55.225Z,4.87
2018-09-09T19:24:58.564Z,5.23
2018-09-09T19:30:02.663Z,6.27
2018-09-09T19:58:41.548Z,5.93
2018-09-09T20:03:45.116Z,5.57
2018-09-09T20:08:48.471Z,4.33
2018-09-09T20:13:51.867Z,4.30
2018-09-09T20:18:55.192Z,5.33
2018-09-09T20:23:58.531Z,13.60
2018-09-09T20:29:01.883Z,7.70
2018-09-09T20:34:05.215Z,5.30
2018-09-09T20:39:08.539Z,5.77
2018-09-09T20:44:11.868Z,5.73
2018-09-09T20:49:15.202Z,5.90
2018-09-09T20:54:18.530Z,4.80
2018-09-09T20:59:22.643Z,5.77
2018-09-09T21:04:25.988Z,6.07
2018-09-09T21:09:29.366Z,4.50
2018-09-09T21:14:32.959Z,5.20
2018-09-09T21:19:36.286Z,4.63
2018-09-09T21:24:39.631Z,4.80
2018-09-09T21:29:42.957Z,4.93
2018-09-09T21:34:46.281Z,5.63
2018-09-09T21:39:49.610Z,4.13
2018-09-09T21:44:52.943Z,5.23
2018-09-09T21:49:56.266Z,5.03
2018-09-09T21:55:22.546Z,4.57
2018-09-09T22:00:26.667Z,4.27
2018-09-09T22:05:39.247Z,4.27
2018-09-09T22:10:42.569Z,4.80
2018-09-09T22:15:45.886Z,5.23
2018-09-09T22:20:49.214Z,4.17
2018-09-09T22:25:54.463Z,4.10
2018-09-09T22:30:57.788Z,4.80
2018-09-09T22:36:01.133Z,4.63
2018-09-09T22:41:05.227Z,4.63
2018-09-09T22:46:10.469Z,5.00
2018-09-09T22:51:13.799Z,3.87
2018-09-09T22:56:28.234Z,4.00
2018-09-09T23:01:31.562Z,4.63
2018-09-09T23:06:35.895Z,4.50
2018-09-09T23:11:39.223Z,4.13
